Capitol, South Carolina
Current Conditions -  °F | °C
As of 8:53 PM on Monday 20 Oct 2014 (Local Time) from KCUB Reporting Station
Clear Clear  
Wind Chill: 60°   Ceiling: Unl
Heat Index: 60°   Visibility: 10mi
Dew Point: 54°   Wind: 0mph
Humidity: 80%   Direction: NA
Pressure: 30.01"   Gusts: NA
Location:  34.0004°N, 81.0344°W
Report Text: KCUB 210053Z AUTO 00000KT 10SM CLR 16/12 A3001 RMK AO2 SLP159 T01560122
Loading
Personal Weather Stations






























Interactive Weather Map
Tropical Storm Tracking
New forecast layout! Learn more

10-Day Weather Forecast

Advertisements
Track Severe Weather on mobile